createdAt,value
2022-12-17T00:01:41.541Z,-10.50
2022-12-17T00:04:26.461Z,-10.61
2022-12-17T00:07:11.337Z,-10.64
2022-12-17T00:09:56.193Z,-10.73
2022-12-17T00:12:41.276Z,-10.67
2022-12-17T00:15:26.775Z,-10.52
2022-12-17T00:18:11.786Z,-10.56
2022-12-17T00:20:56.588Z,-10.98
2022-12-17T00:23:41.311Z,-10.84
2022-12-17T00:26:27.152Z,-11.03
2022-12-17T00:29:12.013Z,-11.37
2022-12-17T00:31:56.751Z,-11.48
2022-12-17T00:34:58.607Z,-11.00
2022-12-17T00:37:43.865Z,-10.86
2022-12-17T00:40:28.843Z,-10.75
2022-12-17T00:43:28.879Z,-10.72
2022-12-17T00:46:14.451Z,-11.15
2022-12-17T00:48:59.791Z,-10.98
2022-12-17T00:51:45.414Z,-10.99
2022-12-17T00:54:30.574Z,-11.42
2022-12-17T00:57:16.290Z,-11.63
2022-12-17T01:00:01.382Z,-11.60
2022-12-17T01:02:46.677Z,-11.60
2022-12-17T01:05:46.298Z,-11.55
2022-12-17T01:08:33.570Z,-11.38
2022-12-17T01:11:25.419Z,-11.18
2022-12-17T01:14:11.528Z,-11.46
2022-12-17T01:16:56.639Z,-11.54
2022-12-17T01:19:42.464Z,-11.57
2022-12-17T01:22:28.598Z,-11.68
2022-12-17T01:25:13.778Z,-11.92
2022-12-17T01:27:59.050Z,-11.88
2022-12-17T01:30:45.278Z,-11.82
2022-12-17T01:33:30.719Z,-11.91
2022-12-17T01:36:17.739Z,-11.66
2022-12-17T01:39:02.840Z,-11.87
2022-12-17T01:41:48.108Z,-11.83
2022-12-17T01:44:58.210Z,-11.49
2022-12-17T01:47:56.520Z,-11.81
2022-12-17T01:50:44.884Z,-11.69
2022-12-17T01:53:30.719Z,-11.78
2022-12-17T01:56:17.214Z,-11.86
2022-12-17T01:59:02.516Z,-11.76
2022-12-17T02:01:47.780Z,-11.41
2022-12-17T02:04:33.228Z,-11.21
2022-12-17T02:07:24.708Z,-11.64
2022-12-17T02:10:41.425Z,-11.64
2022-12-17T02:13:37.604Z,-11.66
2022-12-17T02:16:30.302Z,-11.85
2022-12-17T02:19:43.195Z,-12.01
2022-12-17T02:22:42.728Z,-12.01
2022-12-17T02:26:00.464Z,-12.17
2022-12-17T02:28:46.824Z,-12.19
2022-12-17T02:31:34.740Z,-12.07
2022-12-17T02:34:20.440Z,-11.95
2022-12-17T02:37:08.262Z,-11.73
2022-12-17T02:39:55.805Z,-11.91
2022-12-17T02:42:44.226Z,-11.59
2022-12-17T02:45:31.322Z,-11.42
2022-12-17T02:48:18.087Z,-11.67
2022-12-17T02:51:04.399Z,-11.51
2022-12-17T02:53:51.973Z,-11.41
2022-12-17T02:56:37.190Z,-11.46
2022-12-17T02:59:22.538Z,-12.16
2022-12-17T03:02:08.218Z,-12.09
2022-12-17T03:04:53.630Z,-12.35
2022-12-17T03:07:38.815Z,-12.39
2022-12-17T03:10:24.473Z,-12.47
2022-12-17T03:13:09.810Z,-12.45
2022-12-17T03:15:55.046Z,-12.30
2022-12-17T03:18:40.290Z,-12.28
2022-12-17T03:21:25.311Z,-12.32
2022-12-17T03:24:10.230Z,-12.32
2022-12-17T03:26:55.115Z,-12.34
2022-12-17T03:29:40.227Z,-12.03
2022-12-17T03:32:25.441Z,-11.95
2022-12-17T03:35:10.511Z,-11.77
2022-12-17T03:37:55.672Z,-11.92
2022-12-17T03:40:40.798Z,-12.31
2022-12-17T03:43:27.339Z,-12.41
2022-12-17T03:46:13.462Z,-12.40
2022-12-17T03:48:58.750Z,-12.35
2022-12-17T03:51:43.951Z,-12.40
2022-12-17T03:54:42.858Z,-12.36
2022-12-17T03:57:28.108Z,-12.09
2022-12-17T04:00:13.188Z,-12.11
2022-12-17T04:02:58.573Z,-12.03
2022-12-17T04:05:43.868Z,-12.06
2022-12-17T04:08:29.115Z,-12.24
2022-12-17T04:11:14.458Z,-11.90
2022-12-17T04:13:59.668Z,-11.73
2022-12-17T04:16:44.927Z,-11.53
2022-12-17T04:19:29.923Z,-11.88
2022-12-17T04:22:15.070Z,-11.67
2022-12-17T04:25:00.130Z,-11.50
2022-12-17T04:27:45.353Z,-11.49
2022-12-17T04:30:31.079Z,-11.65
2022-12-17T04:33:16.161Z,-11.80
2022-12-17T04:36:01.326Z,-11.82
2022-12-17T04:38:46.317Z,-11.60
2022-12-17T04:41:31.611Z,-11.86
2022-12-17T04:44:16.466Z,-11.79
2022-12-17T04:47:01.541Z,-11.78
2022-12-17T04:49:46.638Z,-11.86
2022-12-17T04:52:31.778Z,-12.14
2022-12-17T04:55:16.963Z,-12.46
2022-12-17T04:58:02.063Z,-12.46
2022-12-17T05:00:47.330Z,-12.55
2022-12-17T05:03:34.355Z,-12.34
2022-12-17T05:06:20.204Z,-12.52
2022-12-17T05:09:05.608Z,-12.65
2022-12-17T05:11:51.282Z,-12.68
2022-12-17T05:14:36.574Z,-12.74
2022-12-17T05:17:22.188Z,-12.71
2022-12-17T05:20:07.107Z,-12.71
2022-12-17T05:22:52.436Z,-12.62
2022-12-17T05:25:37.621Z,-12.39
2022-12-17T05:28:22.703Z,-12.48
2022-12-17T05:31:12.590Z,-12.13
2022-12-17T05:33:57.711Z,-12.52
2022-12-17T05:36:42.747Z,-12.71
2022-12-17T05:39:28.101Z,-12.89
2022-12-17T05:42:13.305Z,-12.83
2022-12-17T05:44:58.022Z,-12.77
2022-12-17T05:47:43.409Z,-12.81
2022-12-17T05:50:28.587Z,-12.50
2022-12-17T05:53:20.489Z,-12.63
2022-12-17T05:56:14.358Z,-12.92
2022-12-17T05:58:59.405Z,-12.85
2022-12-17T06:01:44.419Z,-12.66
2022-12-17T06:04:29.600Z,-12.61
2022-12-17T06:07:14.272Z,-12.91
2022-12-17T06:09:59.445Z,-12.99
2022-12-17T06:12:44.199Z,-13.04
2022-12-17T06:15:29.306Z,-12.94
2022-12-17T06:18:17.102Z,-12.95
2022-12-17T06:21:03.312Z,-13.02
2022-12-17T06:23:48.270Z,-12.98
2022-12-17T06:26:33.038Z,-13.04
2022-12-17T06:29:18.001Z,-13.06
2022-12-17T06:32:02.818Z,-13.02
2022-12-17T06:34:47.953Z,-12.72
2022-12-17T06:37:32.727Z,-12.43
2022-12-17T06:40:17.789Z,-12.35
2022-12-17T06:43:11.601Z,-12.96
2022-12-17T06:45:56.532Z,-12.95
2022-12-17T06:48:41.454Z,-12.82
2022-12-17T06:51:26.835Z,-12.77
2022-12-17T06:54:11.637Z,-13.01
2022-12-17T06:56:56.850Z,-13.04
2022-12-17T06:59:41.950Z,-12.87
2022-12-17T07:02:29.648Z,-13.05
2022-12-17T07:05:15.159Z,-13.08
2022-12-17T07:08:00.433Z,-12.80
2022-12-17T07:10:45.444Z,-12.59
2022-12-17T07:13:30.324Z,-12.39
2022-12-17T07:16:15.196Z,-12.19
2022-12-17T07:19:00.121Z,-12.41
2022-12-17T07:21:45.488Z,-12.67
2022-12-17T07:24:30.874Z,-12.87
2022-12-17T07:27:16.160Z,-12.92
2022-12-17T07:30:01.303Z,-12.99
2022-12-17T07:32:46.171Z,-12.81
2022-12-17T07:35:30.995Z,-12.85
2022-12-17T07:38:20.854Z,-12.96
2022-12-17T07:41:05.547Z,-13.13
2022-12-17T07:43:53.272Z,-13.03
2022-12-17T07:46:39.216Z,-12.75
2022-12-17T07:49:25.891Z,-12.63
2022-12-17T07:52:11.853Z,-12.41
2022-12-17T07:54:56.800Z,-12.46
2022-12-17T07:57:42.031Z,-12.17
2022-12-17T08:00:27.604Z,-12.25
2022-12-17T08:03:17.779Z,-12.51
2022-12-17T08:06:03.069Z,-12.70
2022-12-17T08:08:47.921Z,-12.42
2022-12-17T08:11:33.196Z,-12.04
2022-12-17T08:14:18.355Z,-12.06
2022-12-17T08:17:03.438Z,-11.69
2022-12-17T08:19:48.507Z,-11.65
2022-12-17T08:22:33.482Z,-11.87
2022-12-17T08:25:18.267Z,-11.91
2022-12-17T08:28:07.345Z,-11.87
2022-12-17T08:30:55.795Z,-11.27
2022-12-17T08:33:40.810Z,-10.96
2022-12-17T08:36:26.090Z,-11.21
2022-12-17T08:39:10.973Z,-10.60
2022-12-17T08:42:06.603Z,-11.06
2022-12-17T08:44:51.918Z,-10.68
2022-12-17T08:47:37.059Z,-10.22
2022-12-17T08:50:24.001Z,-10.43
2022-12-17T08:53:18.988Z,-10.06
2022-12-17T08:56:04.004Z,-10.04
2022-12-17T08:58:48.940Z,-9.70
2022-12-17T09:01:33.924Z,-9.41
2022-12-17T09:04:19.120Z,-9.73
2022-12-17T09:07:04.000Z,-9.59
2022-12-17T09:09:49.101Z,-9.46
2022-12-17T09:12:34.258Z,-9.05
2022-12-17T09:15:19.243Z,-8.82
2022-12-17T09:18:04.677Z,-8.79
2022-12-17T09:23:36.529Z,-8.27
2022-12-17T09:26:22.116Z,-8.08
2022-12-17T09:29:09.013Z,-8.20
2022-12-17T09:31:54.399Z,-8.36
2022-12-17T09:34:39.667Z,-8.14
2022-12-17T09:37:24.834Z,-8.07
2022-12-17T09:40:09.770Z,-7.64
2022-12-17T09:43:20.838Z,-7.40
2022-12-17T09:46:27.859Z,-7.26
2022-12-17T09:49:20.241Z,-7.18
2022-12-17T09:52:05.637Z,-6.72
2022-12-17T09:55:07.170Z,-6.51
2022-12-17T09:57:55.678Z,-6.35
2022-12-17T10:00:45.097Z,-5.64
2022-12-17T10:03:33.923Z,-4.68
2022-12-17T10:06:25.891Z,-4.18
2022-12-17T10:09:16.758Z,-3.52
2022-12-17T10:12:02.138Z,-3.18
2022-12-17T10:14:46.912Z,-3.38
2022-12-17T10:17:38.165Z,-2.85
2022-12-17T10:20:37.113Z,-2.09
2022-12-17T10:23:22.227Z,-0.12
2022-12-17T10:26:12.083Z,0.33
2022-12-17T10:28:57.395Z,0.67
2022-12-17T10:32:07.092Z,1.35
2022-12-17T10:35:01.776Z,0.67
2022-12-17T10:37:50.604Z,-0.21
2022-12-17T10:40:42.473Z,-1.14
2022-12-17T10:43:45.840Z,-1.39
2022-12-17T10:46:40.995Z,-1.67
2022-12-17T10:49:35.426Z,-2.84
2022-12-17T10:52:47.021Z,-3.92
2022-12-17T10:55:45.074Z,-3.20
2022-12-17T10:58:37.584Z,-2.87
2022-12-17T11:01:23.865Z,-2.88
2022-12-17T11:04:15.875Z,-2.79
2022-12-17T11:07:06.103Z,-3.18
2022-12-17T11:09:58.815Z,-2.76
2022-12-17T11:13:08.028Z,-2.39
2022-12-17T11:16:04.063Z,-1.04
2022-12-17T11:18:56.032Z,-1.31
2022-12-17T11:21:49.824Z,-0.77
2022-12-17T11:24:45.898Z,-1.88
2022-12-17T11:27:38.825Z,-2.36
2022-12-17T11:30:34.306Z,-2.99
2022-12-17T11:33:57.313Z,-3.65
2022-12-17T11:36:51.706Z,-3.62
2022-12-17T11:39:48.082Z,-3.84
2022-12-17T11:42:41.453Z,-3.80
2022-12-17T11:45:40.009Z,-3.85
2022-12-17T11:48:40.076Z,-3.80
2022-12-17T11:51:34.261Z,-3.70
2022-12-17T11:54:31.219Z,-3.54
2022-12-17T11:57:30.277Z,-3.84
2022-12-17T12:00:37.242Z,-3.55
2022-12-17T12:03:34.547Z,-3.64
2022-12-17T12:06:27.277Z,-4.14
2022-12-17T12:09:35.323Z,-3.82
2022-12-17T12:12:46.780Z,-3.77
2022-12-17T12:15:53.225Z,-3.72
2022-12-17T12:18:50.221Z,-3.52
2022-12-17T12:21:48.409Z,-3.43
2022-12-17T12:25:15.582Z,-3.40
2022-12-17T12:28:13.617Z,-3.26
2022-12-17T12:31:17.224Z,-3.17
2022-12-17T12:34:11.948Z,-3.19
2022-12-17T12:36:59.410Z,-3.33
2022-12-17T12:39:55.179Z,-3.28
2022-12-17T12:43:09.839Z,-3.33
2022-12-17T12:46:29.618Z,-3.25
2022-12-17T12:49:53.055Z,-3.22
2022-12-17T12:52:44.472Z,-3.45
2022-12-17T12:55:30.263Z,-3.18
2022-12-17T12:58:23.998Z,-3.30
2022-12-17T13:01:08.987Z,-3.24
2022-12-17T13:04:07.868Z,-2.97
2022-12-17T13:06:57.077Z,-3.08
2022-12-17T13:09:32.195Z,-3.25
2022-12-17T13:12:03.193Z,-3.35
2022-12-17T13:14:44.928Z,-3.35
2022-12-17T13:17:14.312Z,-3.34
2022-12-17T13:19:43.612Z,-3.33
2022-12-17T13:22:23.322Z,-3.35
2022-12-17T13:24:52.832Z,-3.31
2022-12-17T13:27:31.901Z,-3.20
2022-12-17T13:30:13.932Z,-3.16
2022-12-17T13:33:18.948Z,-3.15
2022-12-17T13:35:57.460Z,-3.25
2022-12-17T13:38:45.235Z,-3.35
2022-12-17T13:41:14.324Z,-3.46
2022-12-17T13:43:47.891Z,-3.54
2022-12-17T13:46:24.516Z,-3.50
2022-12-17T13:48:54.992Z,-3.47
2022-12-17T13:51:22.619Z,-3.57
2022-12-17T13:54:04.043Z,-3.50
2022-12-17T13:56:37.574Z,-3.62
2022-12-17T13:59:09.253Z,-3.59
2022-12-17T14:01:45.836Z,-3.78
2022-12-17T14:04:24.374Z,-3.71
2022-12-17T14:06:52.573Z,-3.87
2022-12-17T14:09:22.888Z,-3.79
2022-12-17T14:12:08.718Z,-3.87
2022-12-17T14:14:38.164Z,-3.85
2022-12-17T14:17:04.800Z,-3.85
2022-12-17T14:19:33.163Z,-3.82
2022-12-17T14:22:00.592Z,-3.90
2022-12-17T14:24:29.347Z,-3.85
2022-12-17T14:26:59.518Z,-3.87
2022-12-17T14:29:31.181Z,-4.00
2022-12-17T14:32:00.528Z,-3.98
2022-12-17T14:34:27.574Z,-4.13
2022-12-17T14:37:00.852Z,-4.34
2022-12-17T14:39:32.976Z,-4.43
2022-12-17T14:42:32.334Z,-4.35
2022-12-17T14:45:06.777Z,-4.51
2022-12-17T14:47:35.625Z,-4.43
2022-12-17T14:50:08.403Z,-4.60
2022-12-17T14:52:45.131Z,-4.72
2022-12-17T14:55:55.251Z,-4.70
2022-12-17T14:58:23.748Z,-4.92
2022-12-17T15:01:12.104Z,-4.96
2022-12-17T15:03:41.331Z,-4.91
2022-12-17T15:06:11.201Z,-5.01
2022-12-17T15:08:43.326Z,-5.01
2022-12-17T15:11:14.924Z,-5.06
2022-12-17T15:13:42.311Z,-5.26
2022-12-17T15:16:10.734Z,-5.34
2022-12-17T15:18:37.924Z,-5.54
2022-12-17T15:21:05.036Z,-5.43
2022-12-17T15:23:32.005Z,-5.39
2022-12-17T15:25:58.454Z,-5.48
2022-12-17T15:28:24.938Z,-5.45
2022-12-17T15:30:51.550Z,-5.52
2022-12-17T15:33:18.167Z,-5.63
2022-12-17T15:35:44.641Z,-5.63
2022-12-17T15:38:12.366Z,-5.80
2022-12-17T15:40:39.186Z,-6.04
2022-12-17T15:43:12.029Z,-6.21
2022-12-17T15:45:38.443Z,-6.36
2022-12-17T15:48:05.305Z,-6.46
2022-12-17T15:50:31.849Z,-6.41
2022-12-17T15:52:58.570Z,-6.41
2022-12-17T15:55:25.030Z,-6.34
2022-12-17T15:57:51.553Z,-6.36
2022-12-17T16:00:18.328Z,-6.38
2022-12-17T16:02:45.173Z,-6.55
2022-12-17T16:05:12.430Z,-6.71
2022-12-17T16:07:38.930Z,-6.57
2022-12-17T16:10:06.792Z,-6.54
2022-12-17T16:12:33.424Z,-6.64
2022-12-17T16:14:59.971Z,-6.94
2022-12-17T16:17:26.650Z,-7.24
2022-12-17T16:19:53.119Z,-7.41
2022-12-17T16:22:19.674Z,-7.57
2022-12-17T16:24:46.231Z,-7.58
2022-12-17T16:27:14.033Z,-7.59
2022-12-17T16:29:40.575Z,-7.62
2022-12-17T16:32:07.056Z,-7.62
2022-12-17T16:34:33.609Z,-7.70
2022-12-17T16:37:01.480Z,-7.76
2022-12-17T16:39:28.228Z,-7.77
2022-12-17T16:41:55.088Z,-7.89
2022-12-17T16:44:21.616Z,-7.89
2022-12-17T16:46:48.180Z,-7.99
2022-12-17T16:49:20.136Z,-8.02
2022-12-17T16:51:48.808Z,-8.12
2022-12-17T16:54:24.296Z,-8.15
2022-12-17T16:56:51.060Z,-8.19
2022-12-17T16:59:18.756Z,-8.32
2022-12-17T17:01:48.785Z,-8.08
2022-12-17T17:04:17.054Z,-8.30
2022-12-17T17:06:46.600Z,-8.49
2022-12-17T17:09:14.399Z,-8.48
2022-12-17T17:11:41.265Z,-8.49
2022-12-17T17:14:08.186Z,-8.45
2022-12-17T17:16:35.190Z,-8.56
2022-12-17T17:19:03.672Z,-8.52
2022-12-17T17:21:35.981Z,-8.67
2022-12-17T17:24:16.842Z,-8.70
2022-12-17T17:26:47.887Z,-8.75
2022-12-17T17:29:14.722Z,-8.94
2022-12-17T17:34:27.938Z,-9.00
2022-12-17T17:36:54.475Z,-8.82
2022-12-17T17:39:21.078Z,-8.78
2022-12-17T17:41:47.777Z,-8.89
2022-12-17T17:44:15.394Z,-8.92
2022-12-17T17:46:42.245Z,-8.86
2022-12-17T17:49:10.491Z,-8.95
2022-12-17T17:54:27.578Z,-9.01
2022-12-17T17:56:55.403Z,-9.20
2022-12-17T17:59:27.806Z,-9.09
2022-12-17T18:01:57.985Z,-9.17
2022-12-17T18:04:24.664Z,-9.35
2022-12-17T18:09:38.140Z,-9.40
2022-12-17T18:12:24.827Z,-9.32
2022-12-17T18:15:14.645Z,-9.31
2022-12-17T18:17:37.787Z,-9.53
2022-12-17T18:20:04.842Z,-9.51
2022-12-17T18:22:31.319Z,-9.35
2022-12-17T18:24:57.806Z,-9.29
2022-12-17T18:27:24.243Z,-9.54
2022-12-17T18:29:50.712Z,-9.47
2022-12-17T18:32:17.231Z,-9.50
2022-12-17T18:34:43.764Z,-9.70
2022-12-17T18:37:10.348Z,-9.66
2022-12-17T18:39:37.696Z,-9.63
2022-12-17T18:42:23.134Z,-9.80
2022-12-17T18:44:49.738Z,-9.58
2022-12-17T18:47:16.301Z,-9.74
2022-12-17T18:49:42.827Z,-9.75
2022-12-17T18:52:14.737Z,-9.54
2022-12-17T18:54:43.194Z,-9.69
2022-12-17T18:57:09.689Z,-9.59
2022-12-17T18:59:36.222Z,-9.75
2022-12-17T19:02:03.845Z,-9.80
2022-12-17T19:04:32.714Z,-9.80
2022-12-17T19:06:59.267Z,-9.86
2022-12-17T19:09:29.013Z,-9.90
2022-12-17T19:11:56.040Z,-10.03
2022-12-17T19:14:23.341Z,-10.06
2022-12-17T19:16:51.633Z,-10.07
2022-12-17T19:19:19.360Z,-10.10
2022-12-17T19:21:46.403Z,-10.22
2022-12-17T19:24:15.795Z,-10.17
2022-12-17T19:26:43.190Z,-10.31
2022-12-17T19:29:12.411Z,-10.34
2022-12-17T19:31:39.140Z,-10.39
2022-12-17T19:34:07.972Z,-10.35
2022-12-17T19:36:35.907Z,-10.34
2022-12-17T19:39:07.473Z,-10.36
2022-12-17T19:41:34.929Z,-10.43
2022-12-17T19:44:04.068Z,-10.65
2022-12-17T19:46:32.109Z,-10.66
2022-12-17T19:48:58.692Z,-10.68
2022-12-17T19:51:29.430Z,-10.71
2022-12-17T19:53:56.724Z,-10.60
2022-12-17T19:56:29.516Z,-10.64
2022-12-17T19:59:00.672Z,-10.68
2022-12-17T20:01:30.303Z,-10.64
2022-12-17T20:03:57.561Z,-10.64
2022-12-17T20:06:27.012Z,-10.62
2022-12-17T20:08:53.873Z,-10.54
2022-12-17T20:11:47.128Z,-10.49
2022-12-17T20:14:15.155Z,-10.38
2022-12-17T20:16:46.207Z,-10.45
2022-12-17T20:19:18.609Z,-10.43
2022-12-17T20:21:45.361Z,-10.33
2022-12-17T20:24:12.402Z,-10.29
2022-12-17T20:26:39.541Z,-10.40
2022-12-17T20:29:06.580Z,-10.48
2022-12-17T20:31:33.755Z,-10.65
2022-12-17T20:34:01.527Z,-10.75
2022-12-17T20:36:28.084Z,-10.74
2022-12-17T20:38:54.615Z,-10.66
2022-12-17T20:41:23.855Z,-10.67
2022-12-17T20:43:51.156Z,-10.58
2022-12-17T20:46:21.055Z,-10.63
2022-12-17T20:48:48.140Z,-10.61
2022-12-17T20:51:23.503Z,-10.68
2022-12-17T20:53:50.932Z,-10.67
2022-12-17T20:56:21.491Z,-10.76
2022-12-17T20:58:52.201Z,-10.67
2022-12-17T21:01:21.551Z,-10.50
2022-12-17T21:03:50.470Z,-10.43
2022-12-17T21:06:23.131Z,-10.80
2022-12-17T21:08:51.944Z,-10.80
2022-12-17T21:11:22.670Z,-10.75
2022-12-17T21:13:49.268Z,-10.79
2022-12-17T21:16:18.902Z,-10.65
2022-12-17T21:18:45.640Z,-10.77
2022-12-17T21:21:16.828Z,-10.55
2022-12-17T21:23:43.856Z,-10.68
2022-12-17T21:26:21.223Z,-10.82
2022-12-17T21:28:49.884Z,-10.65
2022-12-17T21:31:25.173Z,-10.56
2022-12-17T21:33:55.250Z,-10.77
2022-12-17T21:36:22.808Z,-10.92
2022-12-17T21:38:51.272Z,-11.05
2022-12-17T21:41:23.261Z,-11.14
2022-12-17T21:44:01.817Z,-11.01
2022-12-17T21:46:28.931Z,-10.77
2022-12-17T21:48:58.208Z,-10.68
2022-12-17T21:51:25.559Z,-11.05
2022-12-17T21:53:58.046Z,-11.02
2022-12-17T21:56:25.323Z,-10.85
2022-12-17T21:58:57.206Z,-11.11
2022-12-17T22:01:26.430Z,-11.21
2022-12-17T22:03:54.676Z,-11.09
2022-12-17T22:06:25.326Z,-11.11
2022-12-17T22:08:56.175Z,-11.33
2022-12-17T22:11:27.300Z,-11.39
2022-12-17T22:14:08.065Z,-11.41
2022-12-17T22:16:42.328Z,-11.33
2022-12-17T22:19:10.931Z,-11.17
2022-12-17T22:21:39.616Z,-11.02
2022-12-17T22:24:06.975Z,-11.10
2022-12-17T22:26:36.565Z,-11.00
2022-12-17T22:29:03.423Z,-11.27
2022-12-17T22:31:48.434Z,-11.37
2022-12-17T22:35:24.525Z,-11.38
2022-12-17T22:38:17.895Z,-11.40
2022-12-17T22:43:57.335Z,-10.94
2022-12-17T22:44:43.343Z,-10.80
2022-12-17T22:45:41.644Z,-10.69
2022-12-17T22:48:10.085Z,-11.09
2022-12-17T22:50:41.923Z,-10.98
2022-12-17T22:53:17.731Z,-11.11
2022-12-17T22:55:44.789Z,-11.20
2022-12-17T22:58:11.573Z,-11.20
2022-12-17T23:00:38.151Z,-11.18
2022-12-17T23:03:05.045Z,-11.21
2022-12-17T23:05:32.592Z,-11.19
2022-12-17T23:07:59.771Z,-11.08
2022-12-17T23:10:27.491Z,-11.14
2022-12-17T23:12:54.971Z,-11.24
2022-12-17T23:15:21.401Z,-11.01
2022-12-17T23:17:48.622Z,-10.81
2022-12-17T23:20:16.315Z,-10.89
2022-12-17T23:22:42.940Z,-10.86
2022-12-17T23:25:10.699Z,-10.90
2022-12-17T23:27:37.399Z,-10.82
2022-12-17T23:30:06.137Z,-10.64
2022-12-17T23:32:32.997Z,-10.69
2022-12-17T23:34:59.476Z,-10.96
2022-12-17T23:37:25.995Z,-11.04
2022-12-17T23:39:52.494Z,-11.13
2022-12-17T23:42:18.981Z,-10.95
2022-12-17T23:44:45.428Z,-10.98
2022-12-17T23:47:12.174Z,-10.70
2022-12-17T23:49:38.664Z,-10.82
2022-12-17T23:52:05.537Z,-10.92
2022-12-17T23:54:32.084Z,-10.73
2022-12-17T23:56:58.558Z,-10.80
2022-12-17T23:59:25.061Z,-10.87
